createdAt,value
2023-01-13T00:01:15.792Z,1.70
2023-01-13T00:03:43.607Z,1.70
2023-01-13T00:06:14.851Z,1.70
2023-01-13T00:08:42.483Z,1.70
2023-01-13T00:11:10.607Z,1.70
2023-01-13T00:13:38.910Z,1.80
2023-01-13T00:16:08.706Z,1.70
2023-01-13T00:18:37.409Z,1.80
2023-01-13T00:21:13.399Z,1.80
2023-01-13T00:23:41.370Z,1.80
2023-01-13T00:26:12.731Z,1.80
2023-01-13T00:28:40.010Z,1.80
2023-01-13T00:31:09.945Z,1.80
2023-01-13T00:33:38.272Z,1.80
2023-01-13T00:36:07.349Z,1.80
2023-01-13T00:38:36.243Z,1.70
2023-01-13T00:41:05.370Z,1.70
2023-01-13T00:43:34.829Z,1.70
2023-01-13T00:46:02.677Z,1.70
2023-01-13T00:48:30.710Z,1.80
2023-01-13T00:51:00.721Z,1.80
2023-01-13T00:53:29.473Z,1.80
2023-01-13T00:56:06.806Z,1.80
2023-01-13T00:58:35.982Z,1.80
2023-01-13T01:01:06.260Z,1.80
2023-01-13T01:03:34.373Z,1.70
2023-01-13T01:06:09.079Z,1.70
2023-01-13T01:08:36.767Z,1.60
2023-01-13T01:11:08.364Z,1.60
2023-01-13T01:13:36.157Z,1.50
2023-01-13T01:16:07.202Z,1.50
2023-01-13T01:18:36.624Z,1.40
2023-01-13T01:21:04.774Z,1.40
2023-01-13T01:23:33.291Z,1.30
2023-01-13T01:26:11.267Z,1.40
2023-01-13T01:28:39.286Z,1.30
2023-01-13T01:31:08.277Z,1.30
2023-01-13T01:33:35.619Z,1.30
2023-01-13T01:36:04.052Z,1.20
2023-01-13T01:38:31.380Z,1.20
2023-01-13T01:40:59.227Z,1.10
2023-01-13T01:44:07.399Z,1.10
2023-01-13T01:46:35.843Z,1.10
2023-01-13T01:49:24.251Z,1.00
2023-01-13T01:51:54.937Z,1.00
2023-01-13T01:54:35.639Z,0.90
2023-01-13T01:57:02.902Z,0.90
2023-01-13T01:59:32.539Z,0.90
2023-01-13T02:02:00.081Z,1.00
2023-01-13T02:04:33.971Z,1.00
2023-01-13T02:07:03.661Z,0.90
2023-01-13T02:09:31.084Z,0.90
2023-01-13T02:12:18.068Z,0.80
2023-01-13T02:14:46.129Z,0.70
2023-01-13T02:17:40.585Z,0.70
2023-01-13T02:20:35.232Z,0.70
2023-01-13T02:23:30.117Z,0.60
2023-01-13T02:26:07.290Z,0.60
2023-01-13T02:28:34.759Z,0.60
2023-01-13T02:31:28.664Z,0.60
2023-01-13T02:34:03.956Z,0.60
2023-01-13T02:36:54.520Z,0.50
2023-01-13T02:39:25.839Z,0.50
2023-01-13T02:42:22.876Z,0.50
2023-01-13T02:45:13.819Z,0.40
2023-01-13T02:47:44.543Z,0.40
2023-01-13T02:50:17.661Z,0.40
2023-01-13T02:52:50.959Z,0.30
2023-01-13T02:55:23.829Z,0.30
2023-01-13T02:57:52.942Z,0.30
2023-01-13T03:00:20.864Z,0.30
2023-01-13T03:02:49.303Z,0.40
2023-01-13T03:05:17.609Z,0.40
2023-01-13T03:08:04.591Z,0.40
2023-01-13T03:10:37.933Z,0.50
2023-01-13T03:13:26.065Z,0.50
2023-01-13T03:16:13.458Z,0.50
2023-01-13T03:18:46.072Z,0.50
2023-01-13T03:21:37.633Z,0.50
2023-01-13T03:24:12.270Z,0.50
2023-01-13T03:27:04.151Z,0.50
2023-01-13T03:29:37.497Z,0.50
2023-01-13T03:32:14.908Z,0.50
2023-01-13T03:34:48.850Z,0.50
2023-01-13T03:37:20.240Z,0.50
2023-01-13T03:39:58.314Z,0.50
2023-01-13T03:42:29.175Z,0.50
2023-01-13T03:45:05.120Z,0.50
2023-01-13T03:47:37.193Z,0.60
2023-01-13T03:50:15.079Z,0.70
2023-01-13T03:52:49.607Z,0.70
2023-01-13T03:55:21.440Z,0.70
2023-01-13T03:57:54.249Z,0.80
2023-01-13T04:00:25.860Z,0.80
2023-01-13T04:03:08.080Z,0.80
2023-01-13T04:05:41.786Z,0.90
2023-01-13T04:08:20.624Z,1.00
2023-01-13T04:10:58.053Z,1.00
2023-01-13T04:13:29.044Z,1.10
2023-01-13T04:15:56.624Z,1.00
2023-01-13T04:18:29.118Z,1.10
2023-01-13T04:21:00.040Z,1.10
2023-01-13T04:23:28.341Z,1.20
2023-01-13T04:25:55.870Z,1.10
2023-01-13T04:28:23.627Z,1.20
2023-01-13T04:30:50.940Z,1.20
2023-01-13T04:33:19.364Z,1.20
2023-01-13T04:35:47.688Z,1.10
2023-01-13T04:38:19.295Z,1.20
2023-01-13T04:40:46.948Z,1.20
2023-01-13T04:43:16.079Z,1.20
2023-01-13T04:45:43.718Z,1.10
2023-01-13T04:48:11.240Z,1.20
2023-01-13T04:50:38.497Z,1.20
2023-01-13T04:53:06.519Z,1.20
2023-01-13T04:55:34.238Z,1.10
2023-01-13T04:58:07.403Z,1.10
2023-01-13T05:00:36.123Z,1.00
2023-01-13T05:03:04.432Z,1.00
2023-01-13T05:05:32.041Z,1.10
2023-01-13T05:07:59.491Z,1.10
2023-01-13T05:10:27.921Z,1.10
2023-01-13T05:13:15.229Z,1.10
2023-01-13T05:16:05.112Z,1.10
2023-01-13T05:18:33.636Z,1.10
2023-01-13T05:21:01.070Z,1.10
2023-01-13T05:23:48.428Z,1.10
2023-01-13T05:26:15.552Z,1.00
2023-01-13T05:28:42.767Z,1.00
2023-01-13T05:31:12.328Z,1.10
2023-01-13T05:33:39.720Z,1.00
2023-01-13T05:36:07.439Z,1.00
2023-01-13T05:38:34.844Z,1.00
2023-01-13T05:41:22.121Z,1.10
2023-01-13T05:43:49.265Z,1.00
2023-01-13T05:46:17.775Z,1.10
2023-01-13T05:48:45.873Z,1.10
2023-01-13T05:51:13.937Z,1.10
2023-01-13T05:53:41.211Z,1.20
2023-01-13T05:56:09.479Z,1.10
2023-01-13T05:58:36.914Z,1.20
2023-01-13T06:01:07.576Z,1.20
2023-01-13T06:03:35.638Z,1.20
2023-01-13T06:06:04.415Z,1.20
2023-01-13T06:08:32.327Z,1.10
2023-01-13T06:11:00.215Z,1.10
2023-01-13T06:13:27.789Z,1.10
2023-01-13T06:15:58.903Z,1.10
2023-01-13T06:18:26.764Z,1.10
2023-01-13T06:20:54.246Z,1.20
2023-01-13T06:23:21.592Z,1.20
2023-01-13T06:25:56.773Z,1.20
2023-01-13T06:28:24.237Z,1.20
2023-01-13T06:30:57.889Z,1.30
2023-01-13T06:33:30.887Z,1.30
2023-01-13T06:36:02.870Z,1.20
2023-01-13T06:38:34.723Z,1.30
2023-01-13T06:41:02.899Z,1.30
2023-01-13T06:43:30.104Z,1.30
2023-01-13T06:45:57.411Z,1.40
2023-01-13T06:48:28.378Z,1.30
2023-01-13T06:50:55.459Z,1.40
2023-01-13T06:53:22.781Z,1.40
2023-01-13T06:55:49.961Z,1.40
2023-01-13T06:58:17.843Z,1.40
2023-01-13T07:00:45.051Z,1.50
2023-01-13T07:03:15.705Z,1.50
2023-01-13T07:05:44.451Z,1.50
2023-01-13T07:08:11.789Z,1.50
2023-01-13T07:10:39.412Z,1.60
2023-01-13T07:13:26.500Z,1.70
2023-01-13T07:15:55.572Z,1.70
2023-01-13T07:18:23.200Z,1.70
2023-01-13T07:20:59.952Z,1.80
2023-01-13T07:23:29.885Z,1.80
2023-01-13T07:25:58.183Z,1.80
2023-01-13T07:28:27.394Z,1.80
2023-01-13T07:30:55.055Z,1.80
2023-01-13T07:33:22.672Z,1.80
2023-01-13T07:35:56.781Z,1.80
2023-01-13T07:38:24.611Z,1.80
2023-01-13T07:40:52.215Z,1.90
2023-01-13T07:43:34.966Z,2.00
2023-01-13T07:46:04.925Z,2.10
2023-01-13T07:48:34.601Z,2.20
2023-01-13T07:51:03.965Z,2.40
2023-01-13T07:53:31.300Z,2.50
2023-01-13T07:55:59.354Z,2.50
2023-01-13T07:58:28.061Z,2.60
2023-01-13T08:00:55.880Z,2.70
2023-01-13T08:03:23.907Z,2.80
2023-01-13T08:05:51.182Z,2.90
2023-01-13T08:08:18.602Z,3.00
2023-01-13T08:10:46.279Z,3.10
2023-01-13T08:13:17.923Z,3.30
2023-01-13T08:15:46.475Z,3.50
2023-01-13T08:18:14.152Z,3.60
2023-01-13T08:20:41.862Z,3.60
2023-01-13T08:23:09.145Z,3.40
2023-01-13T08:25:36.413Z,3.30
2023-01-13T08:28:03.770Z,3.30
2023-01-13T08:30:31.288Z,3.30
2023-01-13T08:32:58.633Z,3.30
2023-01-13T08:35:25.710Z,3.40
2023-01-13T08:37:52.949Z,3.50
2023-01-13T08:40:21.034Z,3.60
2023-01-13T08:42:48.779Z,3.60
2023-01-13T08:45:16.555Z,3.60
2023-01-13T08:47:43.849Z,3.70
2023-01-13T08:50:12.286Z,3.70
2023-01-13T08:52:39.502Z,3.70
2023-01-13T08:55:08.121Z,3.70
2023-01-13T08:57:35.679Z,3.80
2023-01-13T09:00:04.822Z,3.90
2023-01-13T09:02:32.657Z,4.00
2023-01-13T09:05:03.244Z,4.00
2023-01-13T09:07:31.534Z,4.00
2023-01-13T09:09:58.773Z,4.20
2023-01-13T09:12:45.963Z,4.50
2023-01-13T09:15:13.601Z,4.70
2023-01-13T09:17:40.737Z,4.90
2023-01-13T09:20:08.594Z,5.20
2023-01-13T09:22:37.630Z,5.30
2023-01-13T09:25:05.077Z,5.40
2023-01-13T09:27:32.524Z,5.40
2023-01-13T09:29:59.886Z,5.50
2023-01-13T09:32:27.075Z,5.60
2023-01-13T09:35:01.665Z,5.50
2023-01-13T09:37:30.963Z,5.60
2023-01-13T09:39:58.434Z,5.60
2023-01-13T09:42:54.196Z,5.70
2023-01-13T09:45:25.252Z,5.50
2023-01-13T09:48:01.384Z,5.30
2023-01-13T09:50:53.400Z,5.50
2023-01-13T09:53:26.683Z,5.70
2023-01-13T09:55:55.003Z,5.90
2023-01-13T09:58:22.251Z,6.00
2023-01-13T10:00:57.298Z,6.20
2023-01-13T10:03:30.281Z,6.30
2023-01-13T10:06:09.495Z,6.10
2023-01-13T10:08:43.280Z,6.20
2023-01-13T10:11:50.115Z,6.10
2023-01-13T10:14:41.886Z,6.00
2023-01-13T10:17:19.207Z,5.90
2023-01-13T10:19:51.064Z,5.80
2023-01-13T10:22:50.563Z,5.90
2023-01-13T10:25:28.327Z,6.00
2023-01-13T10:28:02.215Z,6.20
2023-01-13T10:30:35.090Z,6.30
2023-01-13T10:33:13.772Z,6.40
2023-01-13T10:35:52.001Z,6.40
2023-01-13T10:38:40.803Z,6.60
2023-01-13T10:41:15.688Z,6.70
2023-01-13T10:43:44.453Z,6.60
2023-01-13T10:46:16.131Z,6.60
2023-01-13T10:48:52.220Z,6.60
2023-01-13T10:51:27.808Z,6.60
2023-01-13T10:53:56.955Z,6.70
2023-01-13T10:56:27.596Z,6.80
2023-01-13T10:59:22.588Z,6.90
2023-01-13T11:02:25.390Z,7.10
2023-01-13T11:04:53.473Z,7.70
2023-01-13T11:07:26.824Z,8.20
2023-01-13T11:10:24.436Z,8.50
2023-01-13T11:13:13.982Z,8.80
2023-01-13T11:15:53.868Z,9.00
2023-01-13T11:19:02.297Z,9.10
2023-01-13T11:21:36.965Z,9.10
2023-01-13T11:24:11.660Z,9.00
2023-01-13T11:26:51.727Z,8.90
2023-01-13T11:29:30.394Z,8.70
2023-01-13T11:32:10.946Z,8.80
2023-01-13T11:34:41.773Z,8.60
2023-01-13T11:37:23.871Z,8.30
2023-01-13T11:40:27.117Z,8.20
2023-01-13T11:43:18.859Z,7.90
2023-01-13T11:45:53.734Z,7.90
2023-01-13T11:48:27.232Z,7.90
2023-01-13T11:51:04.722Z,7.80
2023-01-13T11:53:42.763Z,7.60
2023-01-13T11:56:24.785Z,7.50
2023-01-13T11:59:19.284Z,7.60
2023-01-13T12:02:13.009Z,7.80
2023-01-13T12:05:20.208Z,7.90
2023-01-13T12:08:02.682Z,7.80
2023-01-13T12:10:53.402Z,7.70
2023-01-13T12:13:41.232Z,7.70
2023-01-13T12:16:20.095Z,7.70
2023-01-13T12:19:11.148Z,7.60
2023-01-13T12:21:44.270Z,7.60
2023-01-13T12:24:44.405Z,7.60
2023-01-13T12:27:36.922Z,7.70
2023-01-13T12:30:32.481Z,7.80
2023-01-13T12:33:18.648Z,7.80
2023-01-13T12:35:59.949Z,7.70
2023-01-13T12:38:54.373Z,7.70
2023-01-13T12:42:05.033Z,7.60
2023-01-13T12:44:32.328Z,7.50
2023-01-13T12:47:00.571Z,7.40
2023-01-13T12:49:29.371Z,7.50
2023-01-13T12:51:56.672Z,7.40
2023-01-13T12:54:34.596Z,7.40
2023-01-13T12:57:14.391Z,7.50
2023-01-13T12:59:41.887Z,7.50
2023-01-13T13:02:12.740Z,7.50
2023-01-13T13:05:12.539Z,7.50
2023-01-13T13:07:52.110Z,7.60
2023-01-13T13:10:39.000Z,7.70
2023-01-13T13:13:20.381Z,7.70
2023-01-13T13:15:49.570Z,7.80
2023-01-13T13:18:17.921Z,7.80
2023-01-13T13:21:05.723Z,7.80
2023-01-13T13:23:37.346Z,7.70
2023-01-13T13:26:13.163Z,7.60
2023-01-13T13:29:01.478Z,7.60
2023-01-13T13:31:56.175Z,7.50
2023-01-13T13:34:28.809Z,7.60
2023-01-13T13:37:05.980Z,7.60
2023-01-13T13:39:53.941Z,7.50
2023-01-13T13:42:46.665Z,7.50
2023-01-13T13:45:50.030Z,7.50
2023-01-13T13:48:27.597Z,7.50
2023-01-13T13:51:00.313Z,7.40
2023-01-13T13:53:33.084Z,7.40
2023-01-13T13:56:03.275Z,7.50
2023-01-13T13:58:34.378Z,7.50
2023-01-13T14:01:06.697Z,7.40
2023-01-13T14:03:39.038Z,7.40
2023-01-13T14:06:20.871Z,7.40
2023-01-13T14:08:50.664Z,7.40
2023-01-13T14:11:33.462Z,7.40
2023-01-13T14:14:06.910Z,7.40
2023-01-13T14:16:37.601Z,7.40
2023-01-13T14:19:05.049Z,7.40
2023-01-13T14:21:32.461Z,7.30
2023-01-13T14:24:10.748Z,7.30
2023-01-13T14:26:38.001Z,7.30
2023-01-13T14:29:06.180Z,7.20
2023-01-13T14:31:35.146Z,7.10
2023-01-13T14:34:31.892Z,7.10
2023-01-13T14:36:51.913Z,7.10
2023-01-13T14:39:19.071Z,7.00
2023-01-13T14:41:48.491Z,6.90
2023-01-13T14:44:36.395Z,6.90
2023-01-13T14:47:19.844Z,6.80
2023-01-13T14:49:59.169Z,6.70
2023-01-13T14:52:29.723Z,6.70
2023-01-13T14:55:38.546Z,6.70
2023-01-13T14:58:26.298Z,6.60
2023-01-13T15:01:34.979Z,6.50
2023-01-13T15:04:25.977Z,6.50
2023-01-13T15:06:56.179Z,6.40
2023-01-13T15:09:27.290Z,6.40
2023-01-13T15:11:56.389Z,6.30
2023-01-13T15:14:31.324Z,6.30
2023-01-13T15:16:58.637Z,6.20
2023-01-13T15:19:25.747Z,6.10
2023-01-13T15:21:53.087Z,6.10
2023-01-13T15:24:20.276Z,6.10
2023-01-13T15:26:47.408Z,6.00
2023-01-13T15:29:15.986Z,6.00
2023-01-13T15:31:43.555Z,6.00
2023-01-13T15:34:10.594Z,6.00
2023-01-13T15:36:38.012Z,6.00
2023-01-13T15:39:05.310Z,5.90
2023-01-13T15:41:52.484Z,5.90
2023-01-13T15:44:39.541Z,5.90
2023-01-13T15:47:09.454Z,5.80
2023-01-13T15:49:42.242Z,5.80
2023-01-13T15:52:19.763Z,5.70
2023-01-13T15:54:47.116Z,5.70
2023-01-13T15:57:22.738Z,5.60
2023-01-13T15:59:51.188Z,5.60
2023-01-13T16:02:19.402Z,5.60
2023-01-13T16:04:46.684Z,5.50
2023-01-13T16:07:17.046Z,5.50
2023-01-13T16:09:45.243Z,5.50
2023-01-13T16:12:13.459Z,5.50
2023-01-13T16:14:40.859Z,5.50
2023-01-13T16:17:15.153Z,5.50
2023-01-13T16:19:42.593Z,5.40
2023-01-13T16:22:13.542Z,5.40
2023-01-13T16:24:41.705Z,5.40
2023-01-13T16:27:14.972Z,5.40
2023-01-13T16:29:42.751Z,5.30
2023-01-13T16:32:09.866Z,5.30
2023-01-13T16:34:37.770Z,5.30
2023-01-13T16:37:06.632Z,5.20
2023-01-13T16:39:33.825Z,5.20
2023-01-13T16:42:00.952Z,5.20
2023-01-13T16:44:28.230Z,5.20
2023-01-13T16:46:55.345Z,5.10
2023-01-13T16:49:22.507Z,5.20
2023-01-13T16:51:49.664Z,5.20
2023-01-13T16:54:16.847Z,5.30
2023-01-13T16:56:44.715Z,5.30
2023-01-13T16:59:15.277Z,5.30
2023-01-13T17:01:45.028Z,5.20
2023-01-13T17:04:17.320Z,5.20
2023-01-13T17:06:52.779Z,5.20
2023-01-13T17:09:22.595Z,5.10
2023-01-13T17:11:50.090Z,5.10
2023-01-13T17:14:19.627Z,5.00
2023-01-13T17:16:47.126Z,5.00
2023-01-13T17:19:14.423Z,5.00
2023-01-13T17:21:42.418Z,4.90
2023-01-13T17:24:10.756Z,4.90
2023-01-13T17:26:42.203Z,4.90
2023-01-13T17:29:13.646Z,4.90
2023-01-13T17:31:41.684Z,4.80
2023-01-13T17:34:10.621Z,4.80
2023-01-13T17:36:37.715Z,4.80
2023-01-13T17:39:05.019Z,4.70
2023-01-13T17:41:32.275Z,4.70
2023-01-13T17:43:59.329Z,4.70
2023-01-13T17:46:26.563Z,4.60
2023-01-13T17:48:54.158Z,4.60
2023-01-13T17:51:25.208Z,4.60
2023-01-13T17:53:54.187Z,4.60
2023-01-13T17:56:21.491Z,4.60
2023-01-13T17:58:48.891Z,4.60
2023-01-13T18:01:18.275Z,4.60
2023-01-13T18:03:46.483Z,4.60
2023-01-13T18:06:23.465Z,4.60
2023-01-13T18:08:51.071Z,4.60
2023-01-13T18:11:19.847Z,4.60
2023-01-13T18:13:50.922Z,4.60
2023-01-13T18:16:19.605Z,4.60
2023-01-13T18:18:49.178Z,4.60
2023-01-13T18:21:42.930Z,4.60
2023-01-13T18:24:33.167Z,4.60
2023-01-13T18:27:21.159Z,4.60
2023-01-13T18:29:53.230Z,4.60
2023-01-13T18:32:22.029Z,4.50
2023-01-13T18:34:53.958Z,4.50
2023-01-13T18:37:26.421Z,4.50
2023-01-13T18:39:53.803Z,4.50
2023-01-13T18:42:41.159Z,4.50
2023-01-13T18:45:10.529Z,4.50
2023-01-13T18:47:40.746Z,4.50
2023-01-13T18:50:09.139Z,4.50
2023-01-13T18:52:36.861Z,4.50
2023-01-13T18:55:04.351Z,4.50
2023-01-13T18:57:31.611Z,4.50
2023-01-13T18:59:58.721Z,4.50
2023-01-13T19:02:28.062Z,4.50
2023-01-13T19:04:55.487Z,4.40
2023-01-13T19:07:24.472Z,4.40
2023-01-13T19:09:52.774Z,4.40
2023-01-13T19:12:26.118Z,4.40
2023-01-13T19:14:55.615Z,4.40
2023-01-13T19:17:24.909Z,4.40
2023-01-13T19:19:54.681Z,4.40
2023-01-13T19:22:24.137Z,4.40
2023-01-13T19:24:51.355Z,4.40
2023-01-13T19:27:19.469Z,4.30
2023-01-13T19:29:52.318Z,4.30
2023-01-13T19:32:22.388Z,4.30
2023-01-13T19:34:51.498Z,4.20
2023-01-13T19:37:19.584Z,4.10
2023-01-13T19:39:47.111Z,4.10
2023-01-13T19:42:34.560Z,4.10
2023-01-13T19:45:21.601Z,4.10
2023-01-13T19:47:48.717Z,4.10
2023-01-13T19:50:15.930Z,4.20
2023-01-13T19:52:43.741Z,4.30
2023-01-13T19:55:12.543Z,4.30
2023-01-13T19:57:40.450Z,4.30
2023-01-13T20:00:08.876Z,4.30
2023-01-13T20:02:49.220Z,4.30
2023-01-13T20:05:21.959Z,4.30
2023-01-13T20:07:51.107Z,4.20
2023-01-13T20:10:20.281Z,4.20
2023-01-13T20:12:47.760Z,4.10
2023-01-13T20:15:15.072Z,4.00
2023-01-13T20:17:42.674Z,4.00
2023-01-13T20:20:11.000Z,4.00
2023-01-13T20:22:39.787Z,4.00
2023-01-13T20:25:07.631Z,4.00
2023-01-13T20:27:35.144Z,4.10
2023-01-13T20:30:02.377Z,4.00
2023-01-13T20:32:29.580Z,4.10
2023-01-13T20:34:57.734Z,4.20
2023-01-13T20:37:25.139Z,4.30
2023-01-13T20:39:52.445Z,4.20
2023-01-13T20:42:39.896Z,4.20
2023-01-13T20:45:07.743Z,4.20
2023-01-13T20:47:35.536Z,4.20
2023-01-13T20:50:03.664Z,4.20
2023-01-13T20:52:30.863Z,4.20
2023-01-13T20:54:58.380Z,4.20
2023-01-13T20:57:25.883Z,4.20
2023-01-13T20:59:53.040Z,4.30
2023-01-13T21:02:22.740Z,4.30
2023-01-13T21:04:50.277Z,4.40
2023-01-13T21:07:17.798Z,4.30
2023-01-13T21:09:45.509Z,4.40
2023-01-13T21:12:34.893Z,4.40
2023-01-13T21:15:18.607Z,4.40
2023-01-13T21:18:08.633Z,4.40
2023-01-13T21:20:38.065Z,4.30
2023-01-13T21:23:06.823Z,4.30
2023-01-13T21:25:36.785Z,4.30
2023-01-13T21:28:06.400Z,4.20
2023-01-13T21:30:34.300Z,4.20
2023-01-13T21:33:04.328Z,4.20
2023-01-13T21:35:31.909Z,4.10
2023-01-13T21:38:02.181Z,4.00
2023-01-13T21:40:31.053Z,3.90
2023-01-13T21:43:18.108Z,3.90
2023-01-13T21:46:05.717Z,3.90
2023-01-13T21:48:33.265Z,3.90
2023-01-13T21:51:01.581Z,3.80
2023-01-13T21:53:28.852Z,3.80
2023-01-13T21:55:56.755Z,3.80
2023-01-13T21:58:24.551Z,3.70
2023-01-13T22:00:52.089Z,3.60
2023-01-13T22:03:20.289Z,3.70
2023-01-13T22:05:55.154Z,3.60
2023-01-13T22:08:22.470Z,3.60
2023-01-13T22:10:58.241Z,3.50
2023-01-13T22:13:47.915Z,3.40
2023-01-13T22:16:15.676Z,3.40
2023-01-13T22:18:43.625Z,3.30
2023-01-13T22:21:11.230Z,3.30
2023-01-13T22:23:38.338Z,3.30
2023-01-13T22:26:07.472Z,3.20
2023-01-13T22:28:40.958Z,3.20
2023-01-13T22:31:11.127Z,3.20
2023-01-13T22:33:38.897Z,3.20
2023-01-13T22:36:06.507Z,3.20
2023-01-13T22:38:35.080Z,3.20
2023-01-13T22:41:06.284Z,3.20
2023-01-13T22:43:34.175Z,3.20
2023-01-13T22:46:07.117Z,3.20
2023-01-13T22:48:35.083Z,3.30
2023-01-13T22:51:09.803Z,3.20
2023-01-13T22:53:38.003Z,3.20
2023-01-13T22:56:06.066Z,3.30
2023-01-13T22:58:33.496Z,3.20
2023-01-13T23:01:17.570Z,3.20
2023-01-13T23:03:48.109Z,3.20
2023-01-13T23:06:16.327Z,3.20
2023-01-13T23:08:43.474Z,3.20
2023-01-13T23:11:13.793Z,3.10
2023-01-13T23:13:43.334Z,3.10
2023-01-13T23:16:17.060Z,3.00
2023-01-13T23:18:48.105Z,2.90
2023-01-13T23:21:17.706Z,2.90
2023-01-13T23:23:45.210Z,2.80
2023-01-13T23:26:12.946Z,2.80
2023-01-13T23:28:40.342Z,2.80
2023-01-13T23:31:09.129Z,2.70
2023-01-13T23:33:38.092Z,2.70
2023-01-13T23:36:07.457Z,2.60
2023-01-13T23:38:34.959Z,2.60
2023-01-13T23:41:07.468Z,2.60
2023-01-13T23:43:34.783Z,2.60
2023-01-13T23:46:08.235Z,2.70
2023-01-13T23:48:36.279Z,2.70
2023-01-13T23:51:06.535Z,2.70
2023-01-13T23:53:39.931Z,2.70
2023-01-13T23:56:10.480Z,2.70
2023-01-13T23:58:37.877Z,2.70
